Station History


Daily Summary for February 18, 2012 Units:  English    Metric   Both
« Previous Day
Next Day »
Daily Weekly Monthly Yearly Custom
  High: Low: Average:
Temperature: 64.2 °F 36.3 °F 51 °F
Dew Point: 45.9 °F 34.7 °F 41.1 °F
Humidity: 96% 43% 71%
Wind Speed: 5.0mph 0.0mph 2.3mph
Wind Gust: 5.0mph - -
Wind- - WSW
Pressure: 30.20 in 30.01 in -
Precipitation: 0.00 in    
Historical Graphs
 
 
Tabular Data for February 18, 2012
Time Temperature Dew Point Pressure Wind Wind Speed Wind Gust Humidity Rainfall Rate (Hourly)
00:03 44.9 °F 40.4 °F 30.17 in Calm     84% 0.00 in
00:08 44.9 °F 40.4 °F 30.17 in Calm     84% 0.00 in
00:13 44.8 °F 40.3 °F 30.17 in Calm     84% 0.00 in
00:18 44.7 °F 40.2 °F 30.17 in Calm     84% 0.00 in
00:23 44.5 °F 40.0 °F 30.18 in Calm     84% 0.00 in
00:28 44.5 °F 40.3 °F 30.18 in Calm     85% 0.00 in
00:33 44.4 °F 39.9 °F 30.18 in Calm     84% 0.00 in
00:38 44.3 °F 39.8 °F 30.18 in Calm     84% 0.00 in
00:43 44.1 °F 39.9 °F 30.18 in Calm     85% 0.00 in
00:48 44.0 °F 39.8 °F 30.19 in North 1.1 mph   85% 0.00 in
00:53 43.9 °F 39.7 °F 30.19 in North 1.1 mph 1.1 mph 85% 0.00 in
00:58 43.7 °F 39.5 °F 30.19 in Calm     85% 0.00 in
01:03 43.4 °F 39.2 °F 30.19 in Calm     85% 0.00 in
01:08 43.1 °F 38.9 °F 30.20 in Calm     85% 0.00 in
01:13 42.8 °F 38.9 °F 30.20 in Calm     86% 0.00 in
01:18 42.5 °F 38.9 °F 30.20 in Calm     87% 0.00 in
01:23 42.3 °F 38.7 °F 30.20 in NNE 1.1 mph   87% 0.00 in
01:28 42.0 °F 38.4 °F 30.20 in Calm     87% 0.00 in
01:33 41.8 °F 38.5 °F 30.20 in Calm     88% 0.00 in
01:38 41.6 °F 38.3 °F 30.20 in Calm     88% 0.00 in
01:43 41.3 °F 38.0 °F 30.20 in Calm     88% 0.00 in
01:48 41.2 °F 38.2 °F 30.20 in Calm     89% 0.00 in
01:53 41.1 °F 38.1 °F 30.20 in Calm     89% 0.00 in
01:58 40.8 °F 37.8 °F 30.20 in Calm     89% 0.00 in
02:03 40.5 °F 37.5 °F 30.20 in Calm     89% 0.00 in
02:08 40.6 °F 37.9 °F 30.19 in Calm     90% 0.00 in
02:13 40.4 °F 37.7 °F 30.19 in Calm     90% 0.00 in
02:18 40.0 °F 37.0 °F 30.19 in Calm     89% 0.00 in
02:23 39.7 °F 37.0 °F 30.19 in Calm     90% 0.00 in
02:28 39.4 °F 36.7 °F 30.19 in Calm     90% 0.00 in
02:33 39.2 °F 36.8 °F 30.18 in Calm     91% 0.00 in
02:38 39.0 °F 36.3 °F 30.18 in Calm     90% 0.00 in
02:43 38.9 °F 36.5 °F 30.18 in Calm     91% 0.00 in
02:48 39.0 °F 36.9 °F 30.18 in Calm     92% 0.00 in
02:53 38.9 °F 36.8 °F 30.17 in Calm     92% 0.00 in
02:58 38.9 °F 36.8 °F 30.17 in Calm     92% 0.00 in
03:03 38.7 °F 36.6 °F 30.17 in Calm     92% 0.00 in
03:08 38.6 °F 36.5 °F 30.16 in Calm     92% 0.00 in
03:13 38.6 °F 36.8 °F 30.16 in Calm     93% 0.00 in
03:18 38.5 °F 36.4 °F 30.15 in Calm     92% 0.00 in
03:23 38.4 °F 36.3 °F 30.16 in Calm     92% 0.00 in
03:28 38.2 °F 36.1 °F 30.16 in Calm     92% 0.00 in
03:33 38.0 °F 35.9 °F 30.16 in Calm     92% 0.00 in
03:38 37.9 °F 35.8 °F 30.15 in Calm     92% 0.00 in
03:43 38.0 °F 36.2 °F 30.16 in Calm     93% 0.00 in
03:48 38.2 °F 36.6 °F 30.15 in Calm     94% 0.00 in
03:53 38.5 °F 36.9 °F 30.16 in Calm     94% 0.00 in
03:58 38.6 °F 37.0 °F 30.15 in Calm     94% 0.00 in
04:03 38.5 °F 36.9 °F 30.15 in Calm     94% 0.00 in
04:08 38.3 °F 36.5 °F 30.15 in Calm     93% 0.00 in
04:13 38.1 °F 36.3 °F 30.15 in Calm     93% 0.00 in
04:18 38.1 °F 36.5 °F 30.15 in Calm     94% 0.00 in
04:23 38.2 °F 36.6 °F 30.16 in Calm     94% 0.00 in
04:28 38.0 °F 36.2 °F 30.16 in Calm     93% 0.00 in
04:33 37.7 °F 35.9 °F 30.16 in Calm     93% 0.00 in
04:38 37.7 °F 36.1 °F 30.16 in Calm     94% 0.00 in
04:43 37.7 °F 36.1 °F 30.16 in Calm     94% 0.00 in
04:48 38.1 °F 36.5 °F 30.17 in Calm     94% 0.00 in
04:53 38.0 °F 36.4 °F 30.16 in Calm     94% 0.00 in
04:58 37.7 °F 35.9 °F 30.16 in Calm     93% 0.00 in
05:03 37.5 °F 35.7 °F 30.16 in Calm     93% 0.00 in
05:08 37.3 °F 35.5 °F 30.16 in Calm     93% 0.00 in
05:13 37.1 °F 35.3 °F 30.17 in Calm     93% 0.00 in
05:19 36.9 °F 35.1 °F 30.16 in Calm     93% 0.00 in
05:24 36.8 °F 35.2 °F 30.16 in Calm     94% 0.00 in
05:29 36.9 °F 35.3 °F 30.16 in Calm     94% 0.00 in
05:34 37.3 °F 36.0 °F 30.16 in Calm     95% 0.00 in
05:39 37.3 °F 35.7 °F 30.16 in Calm     94% 0.00 in
05:44 37.1 °F 35.5 °F 30.16 in Calm     94% 0.00 in
05:49 36.8 °F 35.0 °F 30.16 in Calm     93% 0.00 in
05:54 36.6 °F 35.0 °F 30.16 in Calm     94% 0.00 in
05:59 36.5 °F 34.9 °F 30.16 in Calm     94% 0.00 in
06:04 36.4 °F 34.8 °F 30.15 in Calm     94% 0.00 in
06:09 36.3 °F 34.7 °F 30.15 in Calm     94% 0.00 in
06:14 36.4 °F 35.1 °F 30.15 in Calm     95% 0.00 in
06:19 36.7 °F 35.4 °F 30.15 in Calm     95% 0.00 in
06:24 36.8 °F 35.5 °F 30.15 in Calm     95% 0.00 in
06:29 36.7 °F 35.4 °F 30.15 in Calm     95% 0.00 in
06:34 36.5 °F 34.9 °F 30.15 in Calm     94% 0.00 in
06:39 36.4 °F 34.8 °F 30.15 in Calm     94% 0.00 in
06:44 36.3 °F 34.7 °F 30.15 in Calm     94% 0.00 in
06:49 36.3 °F 34.7 °F 30.15 in Calm     94% 0.00 in
06:54 36.3 °F 35.0 °F 30.15 in Calm     95% 0.00 in
06:59 36.4 °F 35.1 °F 30.15 in Calm     95% 0.00 in
07:04 36.7 °F 35.4 °F 30.15 in Calm     95% 0.00 in
07:09 37.0 °F 36.0 °F 30.15 in Calm     96% 0.00 in
07:14 37.2 °F 35.9 °F 30.15 in Calm     95% 0.00 in
07:19 37.4 °F 36.1 °F 30.16 in Calm     95% 0.00 in
07:24 37.5 °F 36.2 °F 30.16 in Calm     95% 0.00 in
07:29 37.9 °F 36.9 °F 30.16 in Calm     96% 0.00 in
07:34 38.4 °F 37.4 °F 30.16 in Calm     96% 0.00 in
07:39 39.1 °F 38.1 °F 30.16 in Calm     96% 0.00 in
07:44 39.5 °F 38.5 °F 30.16 in Calm     96% 0.00 in
07:49 40.0 °F 39.0 °F 30.16 in Calm     96% 0.00 in
07:54 40.5 °F 39.4 °F 30.16 in Calm     96% 0.00 in
07:59 41.0 °F 39.9 °F 30.17 in Calm     96% 0.00 in
08:04 42.1 °F 39.9 °F 30.17 in Calm     92% 0.00 in
08:09 42.9 °F 40.2 °F 30.17 in Calm     90% 0.00 in
08:14 43.6 °F 40.6 °F 30.17 in Calm     89% 0.00 in
08:19 44.1 °F 40.5 °F 30.17 in Calm     87% 0.00 in
08:24 44.6 °F 40.7 °F 30.17 in Calm     86% 0.00 in
08:29 45.1 °F 41.2 °F 30.17 in NE 1.1 mph   86% 0.00 in
08:34 45.6 °F 41.4 °F 30.16 in Calm     85% 0.00 in
08:39 46.1 °F 41.8 °F 30.16 in Calm     85% 0.00 in
08:45 46.6 °F 41.7 °F 30.16 in Calm     83% 0.00 in
08:50 47.3 °F 41.8 °F 30.16 in Calm     81% 0.00 in
08:55 48.3 °F 41.4 °F 30.16 in Calm     77% 0.00 in
09:00 49.2 °F 40.9 °F 30.15 in NNE 1.1 mph   73% 0.00 in
09:05 50.0 °F 40.2 °F 30.15 in Calm     69% 0.00 in
09:10 50.6 °F 39.3 °F 30.15 in NNE 1.1 mph 1.1 mph 65% 0.00 in
09:15 51.2 °F 39.0 °F 30.15 in Calm     63% 0.00 in
09:20 51.8 °F 40.0 °F 30.15 in Calm     64% 0.00 in
09:25 52.2 °F 40.0 °F 30.15 in Calm   0.1 mph 63% 0.00 in
09:30 52.5 °F 40.3 °F 30.15 in Calm     63% 0.00 in
09:35 52.8 °F 40.1 °F 30.15 in Calm     62% 0.00 in
09:40 53.1 °F 39.1 °F 30.15 in WSW 1.1 mph   59% 0.00 in
09:45 53.4 °F 39.9 °F 30.15 in SW 1.1 mph 1.1 mph 60% 0.00 in
09:50 53.7 °F 39.3 °F 30.15 in West 1.1 mph 1.1 mph 58% 0.00 in
09:55 54.0 °F 39.5 °F 30.15 in Calm     58% 0.00 in
10:00 54.6 °F 39.7 °F 30.14 in North 1.1 mph 1.1 mph 57% 0.00 in
10:05 55.0 °F 40.0 °F 30.14 in NNE 1.1 mph   57% 0.00 in
10:10 55.5 °F 39.6 °F 30.14 in WNW 2.3 mph 2.3 mph 55% 0.00 in
10:15 56.0 °F 39.6 °F 30.15 in WSW 1.1 mph 1.1 mph 54% 0.00 in
10:20 56.4 °F 39.5 °F 30.14 in Calm     53% 0.00 in
10:25 56.8 °F 39.8 °F 30.14 in Calm     53% 0.00 in
10:30 57.0 °F 39.0 °F 30.14 in West 1.1 mph   51% 0.00 in
10:35 57.4 °F 39.4 °F 30.14 in SW 3.5 mph 3.5 mph 51% 0.00 in
10:40 57.8 °F 39.8 °F 30.13 in WSW 1.1 mph 1.1 mph 51% 0.00 in
10:46 58.4 °F 39.3 °F 30.13 in Calm     49% 0.00 in
10:51 58.7 °F 39.0 °F 30.13 in SSW 2.3 mph 2.3 mph 48% 0.00 in
10:56 58.9 °F 39.2 °F 30.13 in West 1.1 mph 1.1 mph 48% 0.00 in
11:01 59.4 °F 39.1 °F 30.13 in South 1.1 mph   47% 0.00 in
11:06 59.9 °F 39.6 °F 30.12 in WNW 2.3 mph 2.3 mph 47% 0.00 in
11:11 60.5 °F 40.2 °F 30.12 in WNW 1.1 mph 1.1 mph 47% 0.00 in
11:16 60.7 °F 39.8 °F 30.12 in NNW 2.3 mph 2.3 mph 46% 0.00 in
11:21 61.2 °F 39.7 °F 30.12 in SE 1.1 mph 1.1 mph 45% 0.00 in
11:26 61.5 °F 38.8 °F 30.12 in SSW 1.1 mph 1.1 mph 43% 0.00 in
11:31 61.9 °F 39.7 °F 30.11 in Calm     44% 0.00 in
11:36 62.2 °F 41.2 °F 30.11 in NNW 3.5 mph 3.5 mph 46% 0.00 in
11:41 62.4 °F 41.3 °F 30.11 in NW 5.0 mph 5.0 mph 46% 0.00 in
11:46 62.4 °F 40.8 °F 30.10 in NNE 1.1 mph 1.1 mph 45% 0.00 in
11:51 62.2 °F 41.2 °F 30.10 in NW 2.3 mph 2.3 mph 46% 0.00 in
11:56 62.3 °F 41.2 °F 30.10 in ENE 1.1 mph   46% 0.00 in
12:01 62.8 °F 41.1 °F 30.09 in WSW 1.1 mph   45% 0.00 in
12:06 63.1 °F 41.4 °F 30.09 in North 2.3 mph 2.3 mph 45% 0.00 in
12:11 63.2 °F 42.6 °F 30.09 in WSW 1.1 mph 1.1 mph 47% 0.00 in
12:16 63.7 °F 43.6 °F 30.08 in North 4.0 mph 4.0 mph 48% 0.00 in
12:21 63.9 °F 43.8 °F 30.08 in West 3.5 mph 3.5 mph 48% 0.00 in
12:26 63.8 °F 42.6 °F 30.08 in NNE 2.0 mph 2.0 mph 46% 0.00 in
12:31 63.8 °F 43.2 °F 30.07 in West 2.3 mph 2.3 mph 47% 0.00 in
12:36 64.2 °F 42.4 °F 30.07 in WNW 3.0 mph 3.0 mph 45% 0.00 in
12:41 63.9 °F 42.7 °F 30.07 in WSW 3.5 mph 3.5 mph 46% 0.00 in
12:46 63.9 °F 42.1 °F 30.07 in NW 4.6 mph 4.6 mph 45% 0.00 in
12:51 63.5 °F 40.6 °F 30.06 in WNW 3.5 mph 3.5 mph 43% 0.00 in
12:56 63.4 °F 42.2 °F 30.06 in SSW 1.1 mph 1.1 mph 46% 0.00 in
13:01 63.4 °F 42.8 °F 30.06 in West 2.3 mph 2.3 mph 47% 0.00 in
13:06 63.0 °F 43.0 °F 30.06 in SW 3.5 mph 3.5 mph 48% 0.00 in
13:11 63.1 °F 42.0 °F 30.06 in ESE 3.5 mph 3.5 mph 46% 0.00 in
13:16 63.2 °F 41.5 °F 30.06 in West 3.5 mph 3.5 mph 45% 0.00 in
13:21 62.8 °F 41.7 °F 30.05 in WNW 3.5 mph 3.5 mph 46% 0.00 in
13:26 62.6 °F 42.6 °F 30.05 in West 4.6 mph 4.6 mph 48% 0.00 in
13:31 62.4 °F 41.9 °F 30.05 in NNW 3.0 mph 3.0 mph 47% 0.00 in
13:36 62.4 °F 41.9 °F 30.05 in West 2.3 mph 2.3 mph 47% 0.00 in
13:41 62.5 °F 42.5 °F 30.05 in NW 3.5 mph 3.5 mph 48% 0.00 in
13:46 62.3 °F 41.8 °F 30.04 in WNW 4.6 mph 4.6 mph 47% 0.00 in
13:51 62.3 °F 42.3 °F 30.04 in NW 3.5 mph 3.5 mph 48% 0.00 in
13:56 62.1 °F 42.2 °F 30.04 in North 3.5 mph 3.5 mph 48% 0.00 in
14:01 62.1 °F 42.7 °F 30.04 in North 1.1 mph 1.1 mph 49% 0.00 in
14:06 62.3 °F 42.3 °F 30.03 in NNE 2.3 mph 2.3 mph 48% 0.00 in
14:11 62.5 °F 42.0 °F 30.03 in NNW 3.5 mph 3.5 mph 47% 0.00 in
14:16 62.8 °F 41.7 °F 30.03 in WNW 1.1 mph 1.1 mph 46% 0.00 in
14:21 62.9 °F 41.8 °F 30.03 in NNW 2.0 mph 2.0 mph 46% 0.00 in
14:26 62.7 °F 41.6 °F 30.04 in NW 3.5 mph 3.5 mph 46% 0.00 in
14:31 62.4 °F 41.3 °F 30.03 in NNW 2.3 mph 2.3 mph 46% 0.00 in
14:36 62.2 °F 42.3 °F 30.03 in North 3.5 mph 3.5 mph 48% 0.00 in
14:41 62.3 °F 42.9 °F 30.03 in NNW 1.1 mph 1.1 mph 49% 0.00 in
14:46 62.2 °F 41.7 °F 30.03 in NNW 3.5 mph 3.5 mph 47% 0.00 in
14:51 62.0 °F 42.1 °F 30.03 in West 2.3 mph 2.3 mph 48% 0.00 in
14:56 62.2 °F 43.3 °F 30.03 in SSW 1.1 mph   50% 0.00 in
15:01 62.5 °F 42.0 °F 30.03 in NNW 3.5 mph 3.5 mph 47% 0.00 in
15:06 62.6 °F 42.6 °F 30.03 in NE 3.5 mph 3.5 mph 48% 0.00 in
15:11 62.5 °F 41.4 °F 30.03 in North 3.5 mph 3.5 mph 46% 0.00 in
15:16 62.3 °F 41.8 °F 30.03 in NW 2.3 mph 2.3 mph 47% 0.00 in
15:21 62.1 °F 41.6 °F 30.03 in NNW 3.5 mph 3.5 mph 47% 0.00 in
15:26 62.0 °F 42.1 °F 30.03 in NW 3.5 mph 3.5 mph 48% 0.00 in
15:31 61.8 °F 41.9 °F 30.03 in North 2.3 mph 2.3 mph 48% 0.00 in
15:36 61.6 °F 41.7 °F 30.03 in NNW 3.0 mph 3.0 mph 48% 0.00 in
15:41 61.4 °F 41.0 °F 30.03 in NW 3.5 mph 3.5 mph 47% 0.00 in
15:46 61.3 °F 41.4 °F 30.03 in NNW 3.5 mph 3.5 mph 48% 0.00 in
15:51 61.3 °F 42.0 °F 30.02 in NW 2.0 mph 2.0 mph 49% 0.00 in
15:57 61.8 °F 43.0 °F 30.01 in North 1.1 mph 1.1 mph 50% 0.00 in
16:02 62.4 °F 42.4 °F 30.02 in NNE 1.1 mph 1.1 mph 48% 0.00 in
16:07 62.2 °F 42.3 °F 30.02 in West 3.5 mph 3.5 mph 48% 0.00 in
16:12 62.1 °F 42.7 °F 30.02 in NNE 2.3 mph 2.3 mph 49% 0.00 in
16:17 61.9 °F 42.5 °F 30.02 in North 3.0 mph 3.0 mph 49% 0.00 in
16:22 61.8 °F 43.0 °F 30.02 in SE 2.3 mph 2.3 mph 50% 0.00 in
16:27 61.6 °F 42.8 °F 30.02 in NNW 2.3 mph 2.3 mph 50% 0.00 in
16:32 61.4 °F 43.1 °F 30.02 in WNW 1.1 mph   51% 0.00 in
16:37 61.2 °F 43.9 °F 30.01 in West 1.1 mph   53% 0.00 in
16:42 61.0 °F 43.2 °F 30.01 in WNW 1.1 mph   52% 0.00 in
16:47 60.9 °F 44.6 °F 30.01 in West 1.1 mph 1.1 mph 55% 0.00 in
16:52 60.8 °F 45.5 °F 30.01 in North 1.1 mph 1.1 mph 57% 0.00 in
16:57 60.8 °F 45.9 °F 30.01 in NW 2.3 mph 2.3 mph 58% 0.00 in
17:02 60.6 °F 45.7 °F 30.01 in North 2.3 mph 2.3 mph 58% 0.00 in
17:07 60.4 °F 45.5 °F 30.01 in NNE 1.1 mph 1.1 mph 58% 0.00 in
17:12 60.1 °F 45.3 °F 30.01 in WSW 3.5 mph 3.5 mph 58% 0.00 in
17:17 59.7 °F 45.3 °F 30.01 in Calm     59% 0.00 in
17:22 59.2 °F 45.3 °F 30.01 in Calm     60% 0.00 in
17:27 58.8 °F 45.4 °F 30.01 in Calm     61% 0.00 in
17:32 58.4 °F 45.4 °F 30.01 in Calm     62% 0.00 in
17:37 58.0 °F 45.5 °F 30.01 in WNW 1.1 mph 1.1 mph 63% 0.00 in
17:42 57.7 °F 45.6 °F 30.01 in Calm     64% 0.00 in
17:47 57.4 °F 45.3 °F 30.01 in Calm     64% 0.00 in
17:52 57.1 °F 45.4 °F 30.01 in Calm     65% 0.00 in
17:57 56.8 °F 45.6 °F 30.01 in Calm     66% 0.00 in
18:02 56.7 °F 45.5 °F 30.02 in WNW 1.1 mph 1.1 mph 66% 0.00 in
18:07 56.5 °F 45.3 °F 30.02 in Calm     66% 0.00 in
18:12 56.4 °F 45.2 °F 30.02 in WNW 1.1 mph   66% 0.00 in
18:17 56.3 °F 45.1 °F 30.02 in Calm     66% 0.00 in
18:22 56.2 °F 45.0 °F 30.02 in Calm     66% 0.00 in
18:27 56.2 °F 45.4 °F 30.02 in Calm     67% 0.00 in
18:32 56.1 °F 45.3 °F 30.02 in Calm     67% 0.00 in
18:37 56.1 °F 45.3 °F 30.02 in Calm     67% 0.00 in
18:42 56.0 °F 45.6 °F 30.03 in Calm     68% 0.00 in
18:47 55.9 °F 45.5 °F 30.03 in Calm     68% 0.00 in
18:52 55.8 °F 45.8 °F 30.03 in Calm     69% 0.00 in
18:57 55.8 °F 45.8 °F 30.03 in Calm     69% 0.00 in
19:02 55.7 °F 45.7 °F 30.02 in Calm     69% 0.00 in
19:07 55.6 °F 45.6 °F 30.02 in Calm     69% 0.00 in
19:12 55.4 °F 45.4 °F 30.02 in Calm     69% 0.00 in
19:17 55.1 °F 45.5 °F 30.02 in Calm     70% 0.00 in
19:22 54.7 °F 45.1 °F 30.02 in Calm     70% 0.00 in
19:27 54.5 °F 45.3 °F 30.02 in Calm     71% 0.00 in
19:32 54.3 °F 45.1 °F 30.02 in Calm     71% 0.00 in
19:37 54.1 °F 44.9 °F 30.02 in Calm     71% 0.00 in
19:42 53.9 °F 44.7 °F 30.02 in Calm     71% 0.00 in
19:47 53.8 °F 44.6 °F 30.01 in Calm     71% 0.00 in
19:52 53.7 °F 44.5 °F 30.02 in Calm     71% 0.00 in
19:57 53.6 °F 44.8 °F 30.02 in Calm     72% 0.00 in
20:02 53.6 °F 44.8 °F 30.02 in Calm     72% 0.00 in
20:07 53.7 °F 44.5 °F 30.02 in Calm     71% 0.00 in
20:12 53.8 °F 44.6 °F 30.02 in Calm     71% 0.00 in
20:17 54.0 °F 44.8 °F 30.02 in Calm     71% 0.00 in
20:22 54.0 °F 44.8 °F 30.02 in Calm     71% 0.00 in
20:27 54.1 °F 44.9 °F 30.02 in Calm     71% 0.00 in
20:32 54.3 °F 45.1 °F 30.03 in Calm     71% 0.00 in
20:37 54.4 °F 44.8 °F 30.02 in Calm     70% 0.00 in
20:42 54.5 °F 44.9 °F 30.03 in Calm     70% 0.00 in
20:47 54.5 °F 45.3 °F 30.02 in Calm     71% 0.00 in
20:52 54.4 °F 44.8 °F 30.03 in Calm     70% 0.00 in
20:57 54.3 °F 45.1 °F 30.03 in Calm     71% 0.00 in
21:00 54.2 °F 45.0 °F 30.03 in Calm     71% 0.00 in
21:01 54.2 °F 45.0 °F 30.03 in Calm     71% 0.00 in
21:06 54.2 °F 45.0 °F 30.03 in Calm     71% 0.00 in
21:11 54.2 °F 45.4 °F 30.03 in SW 1.1 mph 1.1 mph 72% 0.00 in
21:16 54.2 °F 45.4 °F 30.03 in Calm     72% 0.00 in
21:21 54.1 °F 45.6 °F 30.03 in Calm     73% 0.00 in
21:26 54.1 °F 45.6 °F 30.03 in Calm     73% 0.00 in
21:31 54.0 °F 45.2 °F 30.03 in Calm     72% 0.00 in
21:36 54.0 °F 45.2 °F 30.04 in Calm     72% 0.00 in
21:41 54.0 °F 45.2 °F 30.03 in Calm     72% 0.00 in
21:46 54.0 °F 45.2 °F 30.03 in Calm     72% 0.00 in
21:51 54.0 °F 45.2 °F 30.03 in Calm     72% 0.00 in
21:56 53.9 °F 45.1 °F 30.03 in Calm     72% 0.00 in
22:01 53.7 °F 44.9 °F 30.03 in Calm     72% 0.00 in
22:06 53.6 °F 44.8 °F 30.03 in Calm     72% 0.00 in
22:11 53.6 °F 44.8 °F 30.03 in Calm     72% 0.00 in
22:16 53.4 °F 45.0 °F 30.03 in Calm     73% 0.00 in
22:21 53.2 °F 44.8 °F 30.03 in Calm     73% 0.00 in
22:26 53.0 °F 44.9 °F 30.03 in Calm     74% 0.00 in
22:31 52.9 °F 44.8 °F 30.03 in Calm     74% 0.00 in
22:36 52.9 °F 45.2 °F 30.03 in Calm     75% 0.00 in
22:41 53.0 °F 45.3 °F 30.03 in Calm     75% 0.00 in
22:46 52.9 °F 45.2 °F 30.03 in Calm     75% 0.00 in
22:51 52.7 °F 45.0 °F 30.03 in Calm     75% 0.00 in
22:56 52.7 °F 45.3 °F 30.03 in Calm     76% 0.00 in
23:01 52.6 °F 45.2 °F 30.03 in Calm     76% 0.00 in
23:06 52.4 °F 45.4 °F 30.03 in Calm     77% 0.00 in
23:11 52.2 °F 45.2 °F 30.03 in Calm     77% 0.00 in
23:16 51.8 °F 45.2 °F 30.04 in Calm     78% 0.00 in
23:21 51.6 °F 45.3 °F 30.04 in Calm     79% 0.00 in
23:26 51.4 °F 45.4 °F 30.04 in Calm     80% 0.00 in
23:31 51.2 °F 45.2 °F 30.04 in Calm     80% 0.00 in
23:36 51.1 °F 45.5 °F 30.04 in Calm     81% 0.00 in
23:41 50.9 °F 45.3 °F 30.04 in Calm     81% 0.00 in
23:46 50.7 °F 45.1 °F 30.05 in Calm     81% 0.00 in
23:51 50.5 °F 45.2 °F 30.05 in Calm     82% 0.00 in
23:56 50.3 °F 45.0 °F 30.05 in Calm     82% 0.00 in
Compliments of Weather Underground